Time;durP1;ratioP1;P1;durP2;ratioP2;P2;SDS_P1;SDS_P2;PMS_P1;PMS_P2;Temp;Humidity;BMP_temperature;BMP_pressure;BME280_temperature;BME280_humidity;BME280_pressure;Samples;Min_cycle;Max_cycle;Signal;HPM_P1;HPM_P2
2021/06/12 00:00:19;;;;;;;11.57;6.82;;;;;;;20.13;61.78;100779.34;5096366;28;20079;-67
2021/06/12 00:02:46;;;;;;;11.80;6.70;;;;;;;20.14;61.55;100776.50;5092707;28;20040;-66
2021/06/12 00:05:14;;;;;;;13.40;6.93;;;;;;;20.10;61.96;100780.47;5088431;28;20195;-67
2021/06/12 00:07:42;;;;;;;11.27;7.15;;;;;;;20.14;62.71;100771.16;5105967;27;20421;-67
2021/06/12 00:10:16;;;;;;;9.00;6.60;;;;;;;20.07;62.43;100771.88;5091144;28;20516;-67
2021/06/12 00:12:43;;;;;;;16.20;7.93;;;;;;;19.97;62.45;100775.44;5109034;28;20052;-66
2021/06/12 00:15:12;;;;;;;11.40;6.82;;;;;;;19.93;62.71;100773.22;5087566;28;20079;-67
2021/06/12 00:17:39;;;;;;;10.55;6.85;;;;;;;19.90;62.97;100769.03;5082609;28;20074;-69
2021/06/12 00:20:08;;;;;;;11.50;6.70;;;;;;;19.95;62.88;100769.44;5067435;28;20406;-66
2021/06/12 00:22:35;;;;;;;8.88;6.65;;;;;;;19.89;63.06;100766.47;5108547;28;20127;-66
2021/06/12 00:25:04;;;;;;;12.25;7.28;;;;;;;19.86;63.26;100764.13;5090970;28;20094;-66
2021/06/12 00:27:31;;;;;;;11.57;5.80;;;;;;;19.89;62.83;100763.81;5090791;28;20178;-66
2021/06/12 00:29:59;;;;;;;11.23;6.35;;;;;;;19.97;62.95;100764.75;5109025;28;20067;-67
2021/06/12 00:32:26;;;;;;;10.27;5.90;;;;;;;20.16;62.56;100762.97;5091461;28;20062;-67
2021/06/12 00:34:53;;;;;;;12.27;6.28;;;;;;;20.15;62.66;100754.13;5089677;28;20169;-67
2021/06/12 00:37:20;;;;;;;13.60;6.53;;;;;;;20.06;62.82;100752.34;5091477;28;20070;-67
2021/06/12 00:39:47;;;;;;;8.85;6.07;;;;;;;20.12;62.93;100742.88;5109471;28;20080;-67
2021/06/12 00:42:15;;;;;;;6.88;5.75;;;;;;;20.09;63.21;100745.88;5108283;28;20473;-66
2021/06/12 00:44:42;;;;;;;9.15;5.53;;;;;;;20.08;62.72;100747.69;5097905;28;20146;-66
2021/06/12 00:47:09;;;;;;;8.98;5.75;;;;;;;20.05;62.82;100747.16;5108418;28;20151;-67
2021/06/12 00:49:36;;;;;;;8.23;5.65;;;;;;;20.07;62.68;100742.50;5091640;28;20621;-68
2021/06/12 00:52:04;;;;;;;9.40;5.47;;;;;;;20.12;62.59;100735.69;5093897;28;20050;-66
2021/06/12 00:54:31;;;;;;;8.43;5.80;;;;;;;20.14;62.54;100741.75;5106633;28;20130;-67
2021/06/12 00:56:58;;;;;;;8.55;5.68;;;;;;;20.18;62.69;100734.28;5108277;28;20061;-67
2021/06/12 00:59:25;;;;;;;7.63;4.80;;;;;;;20.21;62.28;100733.97;5107033;28;20051;-67
2021/06/12 01:01:53;;;;;;;7.90;5.18;;;;;;;20.26;61.91;100731.69;5107284;28;20044;-67
2021/06/12 01:04:20;;;;;;;7.10;5.57;;;;;;;20.22;62.06;100733.00;5108765;28;20213;-66
2021/06/12 01:06:50;;;;;;;10.05;4.85;;;;;;;20.21;62.07;100729.44;5107063;28;20059;-67
2021/06/12 01:09:19;;;;;;;6.90;5.57;;;;;;;20.22;62.00;100724.97;5091311;28;20050;-67
2021/06/12 01:12:07;;;;;;;9.27;5.20;;;;;;;20.36;61.52;100724.47;5074733;28;20130;-67
2021/06/12 01:14:38;;;;;;;6.63;4.80;;;;;;;20.31;61.44;100717.84;5103438;28;20052;-67
2021/06/12 01:17:30;;;;;;;6.65;5.50;;;;;;;20.26;61.26;100726.31;5108121;28;20043;-66
2021/06/12 01:20:09;;;;;;;9.40;5.20;;;;;;;20.31;61.12;100724.06;5101598;28;20047;-68
2021/06/12 01:22:45;;;;;;;12.40;6.00;;;;;;;20.54;60.44;100718.31;5088373;28;20789;-66
2021/06/12 01:25:57;;;;;;;10.30;6.25;;;;;;;20.52;60.23;100723.78;5105408;28;20031;-68
2021/06/12 01:28:50;;;;;;;9.98;5.72;;;;;;;20.55;60.36;100725.34;5061621;28;20110;-66
2021/06/12 01:31:19;;;;;;;13.60;6.28;;;;;;;20.51;60.88;100727.47;5042618;28;20044;-66
2021/06/12 01:33:47;;;;;;;13.32;6.88;;;;;;;20.50;60.89;100723.13;5073122;28;20089;-66
2021/06/12 01:36:16;;;;;;;10.35;6.07;;;;;;;20.51;61.06;100716.78;5079883;28;20050;-67
2021/06/12 01:38:46;;;;;;;10.13;6.45;;;;;;;20.47;61.26;100715.34;5091765;28;20048;-67
2021/06/12 01:41:16;;;;;;;12.95;6.68;;;;;;;20.44;61.62;100713.84;5093043;28;20065;-67
2021/06/12 01:43:43;;;;;;;12.38;6.55;;;;;;;20.54;61.65;100719.16;5109911;28;20142;-66
2021/06/12 01:46:12;;;;;;;10.27;6.40;;;;;;;20.51;61.85;100718.59;5097471;28;20123;-66
2021/06/12 01:48:41;;;;;;;9.80;5.60;;;;;;;20.66;61.11;100725.09;5089461;28;20055;-67
2021/06/12 01:51:08;;;;;;;8.43;5.55;;;;;;;20.71;61.04;100723.66;5095394;28;20051;-67
2021/06/12 01:53:37;;;;;;;10.90;5.05;;;;;;;20.67;61.61;100719.63;5099098;28;20523;-66
2021/06/12 01:56:07;;;;;;;8.82;4.90;;;;;;;20.81;61.02;100714.72;5064409;28;20056;-68
2021/06/12 01:58:37;;;;;;;6.70;5.38;;;;;;;20.74;61.64;100707.28;5107153;28;20146;-66
2021/06/12 02:01:07;;;;;;;7.22;5.25;;;;;;;20.73;61.84;100707.44;5082298;28;20051;-67
2021/06/12 02:03:34;;;;;;;6.28;5.07;;;;;;;20.65;62.20;100702.84;5106707;28;20151;-69
2021/06/12 02:06:02;;;;;;;9.15;5.57;;;;;;;20.72;61.67;100701.25;5087914;28;20129;-65
2021/06/12 02:08:30;;;;;;;9.13;4.72;;;;;;;20.78;61.67;100706.97;5092699;28;20458;-67
2021/06/12 02:10:58;;;;;;;6.10;4.50;;;;;;;20.86;61.04;100705.22;5107636;28;20051;-66
2021/06/12 02:13:26;;;;;;;6.63;5.07;;;;;;;20.82;61.21;100711.88;5056240;28;20559;-67
2021/06/12 02:15:55;;;;;;;6.55;4.40;;;;;;;20.73;61.53;100708.28;5079214;28;20126;-67
2021/06/12 02:18:23;;;;;;;7.95;4.57;;;;;;;20.68;61.97;100707.06;5107580;28;20100;-67
2021/06/12 02:20:52;;;;;;;6.82;5.13;;;;;;;20.68;61.66;100707.91;5082628;28;20055;-66
2021/06/12 02:23:19;;;;;;;7.68;5.07;;;;;;;20.72;61.13;100711.13;5115975;27;20066;-66
2021/06/12 02:25:47;;;;;;;13.35;4.85;;;;;;;20.82;60.54;100711.03;5087562;28;20048;-67
2021/06/12 02:28:15;;;;;;;10.77;4.55;;;;;;;20.79;60.58;100705.97;5109492;28;20048;-69
2021/06/12 02:30:48;;;;;;;9.07;5.10;;;;;;;20.79;60.49;100706.81;5075030;28;20108;-67
2021/06/12 02:33:17;;;;;;;5.78;4.38;;;;;;;20.78;60.45;100701.63;5099150;28;20040;-67
2021/06/12 02:35:45;;;;;;;5.97;5.30;;;;;;;20.72;60.94;100697.75;5093914;28;20086;-67
2021/06/12 02:38:13;;;;;;;10.07;5.53;;;;;;;20.76;60.76;100693.78;5091384;28;20052;-68
2021/06/12 02:40:40;;;;;;;8.68;4.75;;;;;;;20.81;60.66;100709.38;5104524;28;20126;-68
2021/06/12 02:43:07;;;;;;;6.55;5.07;;;;;;;20.79;60.70;100704.16;5094929;28;20079;-66
2021/06/12 02:45:34;;;;;;;8.30;5.47;;;;;;;20.79;61.13;100706.81;5087888;28;20131;-67
2021/06/12 02:48:05;;;;;;;7.93;5.07;;;;;;;20.88;60.70;100702.38;5098543;28;20048;-66
2021/06/12 02:50:34;;;;;;;7.00;4.47;;;;;;;20.87;61.09;100703.38;5106192;28;20048;-67
2021/06/12 02:53:04;;;;;;;6.88;5.15;;;;;;;20.92;60.75;100703.75;5090593;28;20131;-67
2021/06/12 02:55:33;;;;;;;9.10;4.97;;;;;;;20.85;61.05;100708.91;5105783;28;20052;-66
2021/06/12 02:58:01;;;;;;;6.15;4.68;;;;;;;20.78;61.39;100715.00;5088222;28;20092;-66
2021/06/12 03:00:29;;;;;;;6.50;5.32;;;;;;;20.87;61.12;100706.91;5085614;28;20123;-67
2021/06/12 03:02:57;;;;;;;7.43;5.43;;;;;;;20.73;61.93;100716.31;5087896;28;20065;-67
2021/06/12 03:05:25;;;;;;;7.68;4.72;;;;;;;20.68;62.14;100721.28;5087450;28;20044;-67
2021/06/12 03:07:56;;;;;;;11.38;5.97;;;;;;;20.81;61.71;100718.22;5065106;28;20044;-67
2021/06/12 03:10:28;;;;;;;7.43;5.07;;;;;;;20.73;62.04;100728.84;5087512;28;20058;-66
2021/06/12 03:12:56;;;;;;;6.85;4.70;;;;;;;20.70;62.21;100727.31;5088707;28;20181;-67
2021/06/12 03:15:24;;;;;;;6.55;4.55;;;;;;;20.70;62.05;100719.28;5093873;28;20069;-66
2021/06/12 03:17:52;;;;;;;7.05;5.05;;;;;;;20.62;62.32;100727.22;5102566;28;20054;-66
2021/06/12 03:20:20;;;;;;;8.40;4.55;;;;;;;20.61;62.67;100733.56;5077413;28;20051;-66
2021/06/12 03:22:49;;;;;;;6.65;4.15;;;;;;;20.63;62.31;100739.63;5104644;28;20519;-67
2021/06/12 03:25:20;;;;;;;5.03;3.85;;;;;;;20.57;62.67;100731.38;5093215;28;20531;-67
2021/06/12 03:27:48;;;;;;;6.97;4.78;;;;;;;20.54;62.85;100734.38;5092935;28;20622;-66
2021/06/12 03:30:16;;;;;;;6.53;4.93;;;;;;;20.35;63.50;100740.63;5104214;28;20058;-66
2021/06/12 03:32:43;;;;;;;8.57;4.88;;;;;;;20.24;64.14;100742.53;5105462;28;20123;-67
2021/06/12 03:35:10;;;;;;;8.07;4.82;;;;;;;20.38;63.60;100743.84;5089375;28;20040;-67
2021/06/12 03:37:39;;;;;;;6.03;4.43;;;;;;;20.31;64.00;100747.25;5082710;28;20060;-68
2021/06/12 03:40:08;;;;;;;8.68;4.72;;;;;;;20.17;64.49;100745.94;5090701;28;20039;-69
2021/06/12 03:42:36;;;;;;;7.22;4.57;;;;;;;20.07;65.39;100743.34;5094699;28;20056;-68
2021/06/12 03:45:07;;;;;;;7.55;4.10;;;;;;;20.15;65.39;100742.59;5092609;28;20044;-66
2021/06/12 03:47:36;;;;;;;5.07;3.47;;;;;;;20.04;66.07;100738.31;5095216;28;20047;-66
2021/06/12 03:50:06;;;;;;;6.40;3.70;;;;;;;20.02;66.55;100742.09;5093811;28;20116;-68
2021/06/12 03:52:34;;;;;;;5.38;3.90;;;;;;;20.04;66.57;100743.66;5090318;28;20059;-66
2021/06/12 03:55:03;;;;;;;7.65;4.20;;;;;;;20.01;66.78;100746.59;5104541;28;20131;-66
2021/06/12 03:57:31;;;;;;;5.28;3.90;;;;;;;20.02;66.82;100740.25;5077183;28;20134;-67
2021/06/12 03:59:58;;;;;;;5.18;3.78;;;;;;;20.04;67.05;100740.09;5070780;28;20131;-67
2021/06/12 04:02:27;;;;;;;4.70;3.72;;;;;;;20.02;67.21;100734.91;5096493;28;20135;-66
2021/06/12 04:04:57;;;;;;;6.88;3.55;;;;;;;19.99;67.32;100737.88;5091528;28;20054;-66
2021/06/12 04:07:25;;;;;;;6.45;3.70;;;;;;;19.98;67.57;100741.56;5101929;28;20625;-67
2021/06/12 04:09:52;;;;;;;4.70;3.63;;;;;;;20.11;67.24;100733.19;5100075;28;20058;-67
2021/06/12 04:12:19;;;;;;;7.60;3.95;;;;;;;20.20;66.97;100732.28;5105364;28;20446;-67
2021/06/12 04:14:47;;;;;;;5.20;3.47;;;;;;;20.31;66.42;100739.25;5086771;28;20062;-65
2021/06/12 04:17:15;;;;;;;5.38;3.45;;;;;;;20.57;65.66;100737.56;5105752;28;20051;-66
2021/06/12 04:19:43;;;;;;;5.93;3.72;;;;;;;20.70;65.10;100734.50;5090311;28;20056;-66
2021/06/12 04:22:10;;;;;;;8.07;3.78;;;;;;;20.82;64.85;100729.75;5095717;28;20082;-66
2021/06/12 04:24:37;;;;;;;10.20;3.88;;;;;;;20.90;64.66;100730.69;5091220;28;20130;-67
2021/06/12 04:27:05;;;;;;;6.07;3.10;;;;;;;20.88;64.69;100726.47;5071950;28;20206;-67
2021/06/12 04:29:32;;;;;;;6.03;3.35;;;;;;;20.86;64.79;100731.13;5104455;28;20124;-66
2021/06/12 04:32:00;;;;;;;6.63;3.65;;;;;;;20.69;65.42;100732.81;5104049;28;20141;-67
2021/06/12 04:34:27;;;;;;;6.57;3.67;;;;;;;20.79;65.45;100732.75;5091835;28;20391;-68
2021/06/12 04:36:55;;;;;;;4.57;3.45;;;;;;;20.97;64.99;100731.72;5115275;27;20046;-68
2021/06/12 04:39:22;;;;;;;5.97;3.65;;;;;;;20.92;65.00;100723.31;5109606;28;20512;-66
2021/06/12 04:41:49;;;;;;;4.57;3.22;;;;;;;21.02;64.97;100727.75;5106557;28;20128;-66
2021/06/12 04:44:16;;;;;;;5.65;3.30;;;;;;;21.41;63.52;100733.56;5109382;28;20047;-67
2021/06/12 04:46:43;;;;;;;5.75;3.42;;;;;;;21.72;62.50;100726.72;5086328;28;20133;-66
2021/06/12 04:49:13;;;;;;;5.38;3.33;;;;;;;22.12;61.18;100727.91;5109881;28;20086;-67
2021/06/12 04:51:41;;;;;;;4.55;3.70;;;;;;;22.19;60.88;100723.56;5104236;28;20127;-66
2021/06/12 04:54:09;;;;;;;6.40;3.40;;;;;;;22.46;59.69;100721.63;5100263;28;20075;-67
2021/06/12 04:56:38;;;;;;;5.10;3.20;;;;;;;22.53;59.72;100725.31;5107484;28;20123;-67
2021/06/12 04:59:05;;;;;;;6.32;3.63;;;;;;;22.44;59.38;100720.97;5110147;28;20095;-68
2021/06/12 05:01:32;;;;;;;5.38;3.17;;;;;;;22.20;60.47;100721.75;5104721;28;20074;-65
2021/06/12 05:03:59;;;;;;;7.95;3.88;;;;;;;22.21;60.47;100718.06;5108625;28;20512;-66
2021/06/12 05:06:27;;;;;;;7.18;3.65;;;;;;;22.17;60.67;100725.59;5090400;28;20189;-66
2021/06/12 05:08:54;;;;;;;7.50;3.47;;;;;;;21.94;61.53;100719.94;5109084;28;20116;-67
2021/06/12 05:11:21;;;;;;;6.90;3.63;;;;;;;22.33;60.10;100731.97;5106663;28;20122;-67
2021/06/12 05:13:48;;;;;;;6.25;3.33;;;;;;;22.55;59.52;100726.00;5109994;28;20085;-67
2021/06/12 05:16:15;;;;;;;11.07;3.63;;;;;;;22.13;60.98;100713.50;5106344;28;20051;-67
2021/06/12 05:18:44;;;;;;;3.85;2.60;;;;;;;22.26;60.84;100714.88;5109738;27;20455;-67
2021/06/12 05:21:12;;;;;;;5.45;2.50;;;;;;;23.09;57.60;100728.22;5092945;28;20131;-66
2021/06/12 05:23:39;;;;;;;4.57;2.75;;;;;;;23.77;55.33;100708.94;5110988;28;20071;-68
2021/06/12 05:26:07;;;;;;;4.35;2.50;;;;;;;23.93;54.66;100702.66;5103879;28;20108;-67
2021/06/12 05:28:34;;;;;;;5.63;2.60;;;;;;;24.67;52.35;100706.56;5093595;28;20135;-66
2021/06/12 05:31:02;;;;;;;8.85;2.78;;;;;;;25.30;50.78;100703.69;5106247;28;20055;-68
2021/06/12 05:33:30;;;;;;;4.43;2.47;;;;;;;25.30;51.34;100695.59;5109946;28;20694;-67
2021/06/12 05:35:58;;;;;;;6.00;2.53;;;;;;;25.00;51.20;100700.94;5103177;28;20051;-70
2021/06/12 05:38:26;;;;;;;3.65;2.40;;;;;;;24.71;52.40;100697.13;5107562;28;20047;-68
2021/06/12 05:40:54;;;;;;;5.30;2.72;;;;;;;24.63;52.71;100699.91;5105810;28;20048;-68
2021/06/12 05:43:22;;;;;;;7.50;3.20;;;;;;;24.44;53.16;100705.75;5095978;28;20527;-67
2021/06/12 05:45:50;;;;;;;19.50;4.25;;;;;;;24.14;53.79;100710.97;5065135;28;20066;-66
2021/06/12 05:48:17;;;;;;;20.25;4.45;;;;;;;23.95;54.70;100708.69;5121116;22;20373;-68
2021/06/12 05:50:44;;;;;;;27.33;5.15;;;;;;;24.45;53.66;100715.50;5072195;28;20119;-68
2021/06/12 05:53:12;;;;;;;15.77;3.85;;;;;;;24.84;51.80;100709.16;5078524;28;20061;-68
2021/06/12 05:55:39;;;;;;;3.13;2.83;;;;;;;24.56;52.19;100709.72;5091398;28;20151;-67
2021/06/12 05:58:06;;;;;;;5.22;2.42;;;;;;;24.49;52.33;100714.13;5109810;27;20150;-67
2021/06/12 06:00:33;;;;;;;7.00;2.63;;;;;;;24.04;52.91;100713.00;5110958;28;20051;-69
2021/06/12 06:03:01;;;;;;;3.63;2.90;;;;;;;23.64;54.10;100708.63;5092566;28;20044;-69
2021/06/12 06:05:28;;;;;;;4.20;2.60;;;;;;;23.20;55.57;100719.81;5069266;28;20043;-68
2021/06/12 06:07:55;;;;;;;4.07;2.80;;;;;;;22.83;56.33;100721.16;5107747;28;20040;-68
2021/06/12 06:10:23;;;;;;;6.53;3.25;;;;;;;22.53;57.27;100716.44;5072471;28;20039;-69
2021/06/12 06:12:50;;;;;;;10.38;3.00;;;;;;;22.02;59.11;100724.50;5095908;28;20130;-68
2021/06/12 06:15:17;;;;;;;6.07;2.75;;;;;;;21.88;60.21;100720.56;5088111;28;20691;-69
2021/06/12 06:17:45;;;;;;;3.88;3.38;;;;;;;21.66;60.47;100727.38;5088256;28;20098;-68
2021/06/12 06:20:13;;;;;;;8.35;3.45;;;;;;;21.57;61.04;100731.00;5109112;27;20058;-68
2021/06/12 06:22:41;;;;;;;6.45;3.20;;;;;;;21.44;61.65;100723.41;5099449;28;20495;-69
2021/06/12 06:25:08;;;;;;;8.90;3.42;;;;;;;21.37;61.87;100721.50;5102512;27;20404;-68
2021/06/12 06:27:36;;;;;;;7.78;4.05;;;;;;;21.19;62.32;100721.50;5082971;28;20051;-68
2021/06/12 06:30:04;;;;;;;15.85;3.88;;;;;;;21.16;62.72;100719.13;5116827;27;20111;-68
2021/06/12 06:32:31;;;;;;;7.63;3.83;;;;;;;21.31;62.28;100711.41;5118773;27;20343;-69
2021/06/12 06:34:59;;;;;;;7.57;3.95;;;;;;;21.22;62.41;100708.66;5092525;27;20079;-68
2021/06/12 06:37:26;;;;;;;6.63;3.47;;;;;;;21.48;61.74;100713.22;5098214;28;20275;-68
2021/06/12 06:39:53;;;;;;;12.13;2.92;;;;;;;21.78;61.15;100716.34;5109648;27;20073;-68
2021/06/12 06:42:20;;;;;;;4.20;3.50;;;;;;;21.82;60.71;100720.41;5102580;27;20515;-67
2021/06/12 06:44:48;;;;;;;8.38;3.92;;;;;;;21.72;60.46;100718.69;5109675;27;20469;-67
2021/06/12 06:47:15;;;;;;;10.90;4.20;;;;;;;21.69;60.72;100724.34;5096587;28;20057;-68
2021/06/12 06:49:42;;;;;;;7.15;3.20;;;;;;;21.67;60.65;100720.16;5112771;27;20739;-68
2021/06/12 06:52:09;;;;;;;4.57;2.78;;;;;;;21.72;60.25;100721.34;5089392;28;20055;-67
2021/06/12 06:54:36;;;;;;;7.72;4.13;;;;;;;21.64;60.59;100715.94;5117559;27;20069;-68
2021/06/12 06:57:04;;;;;;;5.80;3.22;;;;;;;21.77;60.61;100717.34;5112442;27;20085;-68
2021/06/12 06:59:33;;;;;;;7.35;3.63;;;;;;;21.98;59.86;100715.94;5104971;28;20534;-68
2021/06/12 07:02:01;;;;;;;6.97;3.72;;;;;;;22.21;59.26;100716.22;5106757;28;20093;-67
2021/06/12 07:04:28;;;;;;;7.55;3.50;;;;;;;22.32;59.01;100716.91;5091515;27;20123;-67
2021/06/12 07:06:55;;;;;;;6.90;3.88;;;;;;;22.63;58.73;100715.25;5080004;28;20046;-67
2021/06/12 07:09:23;;;;;;;7.90;3.60;;;;;;;22.94;57.73;100722.69;5114259;27;20100;-69
2021/06/12 07:11:50;;;;;;;8.30;3.75;;;;;;;23.30;56.35;100716.94;5112943;27;20044;-68
2021/06/12 07:14:18;;;;;;;15.45;4.80;;;;;;;23.37;56.28;100723.28;5112298;27;20074;-68
2021/06/12 07:16:45;;;;;;;6.80;4.10;;;;;;;22.97;57.33;100722.38;5108467;28;20051;-68
2021/06/12 07:19:12;;;;;;;8.48;3.92;;;;;;;22.99;56.79;100723.84;5100034;27;20149;-68
2021/06/12 07:21:39;;;;;;;10.35;4.20;;;;;;;22.81;57.61;100733.06;5113550;27;20570;-68
2021/06/12 07:24:06;;;;;;;12.68;5.10;;;;;;;22.63;58.51;100728.69;5109458;27;20076;-68
2021/06/12 07:26:34;;;;;;;10.68;4.55;;;;;;;22.42;59.07;100721.09;5089088;28;20135;-69
2021/06/12 07:29:01;;;;;;;8.52;5.32;;;;;;;22.04;61.04;100724.34;5095926;28;20582;-69
2021/06/12 07:31:38;;;;;;;8.88;5.10;;;;;;;21.77;61.82;100717.34;5097152;27;20054;-70
2021/06/12 07:34:06;;;;;;;7.15;5.13;;;;;;;21.93;61.21;100707.56;5097392;28;20046;-69
2021/06/12 07:36:33;;;;;;;10.25;4.93;;;;;;;21.70;62.20;100711.78;5119409;27;20159;-69
2021/06/12 07:39:01;;;;;;;6.82;5.32;;;;;;;21.68;62.69;100703.09;5116660;28;20058;-69
2021/06/12 07:41:28;;;;;;;10.05;4.93;;;;;;;21.72;62.32;100697.25;5116156;28;20116;-68
2021/06/12 07:43:55;;;;;;;6.68;5.25;;;;;;;21.80;62.57;100701.81;5088280;28;20473;-68
2021/06/12 07:46:22;;;;;;;11.45;6.15;;;;;;;21.67;63.40;100690.69;5115368;28;20479;-67
2021/06/12 07:48:50;;;;;;;12.27;5.80;;;;;;;21.84;63.08;100696.94;5076250;28;20067;-69
2021/06/12 07:51:17;;;;;;;9.48;6.28;;;;;;;21.87;62.50;100699.31;5113635;28;20127;-70
2021/06/12 07:53:45;;;;;;;9.80;6.07;;;;;;;21.82;62.81;100699.78;5114284;28;20218;-68
2021/06/12 07:56:12;;;;;;;9.15;6.43;;;;;;;21.98;61.99;100696.34;5110004;28;20474;-69
2021/06/12 07:58:39;;;;;;;10.40;7.13;;;;;;;21.54;63.16;100691.13;5099991;28;20057;-68
2021/06/12 08:01:06;;;;;;;11.35;6.45;;;;;;;21.46;63.89;100693.75;5103580;28;20082;-68
2021/06/12 08:03:35;;;;;;;10.05;6.40;;;;;;;21.55;63.82;100687.44;5089204;28;20058;-70
2021/06/12 08:06:02;;;;;;;9.30;6.20;;;;;;;21.57;63.49;100689.94;5089058;28;20043;-69
2021/06/12 08:08:29;;;;;;;10.30;6.40;;;;;;;21.33;64.37;100686.16;5115427;27;20130;-68
2021/06/12 08:10:56;;;;;;;7.18;5.75;;;;;;;21.69;63.63;100680.63;5092126;27;20039;-68
2021/06/12 08:13:24;;;;;;;8.60;6.07;;;;;;;21.93;63.20;100678.06;5097513;28;20130;-69
2021/06/12 08:15:51;;;;;;;10.18;7.18;;;;;;;21.82;63.00;100677.50;5081257;28;20297;-67
2021/06/12 08:18:18;;;;;;;11.75;8.30;;;;;;;21.73;63.27;100671.28;5099361;28;20043;-68
2021/06/12 08:20:47;;;;;;;11.00;7.57;;;;;;;21.93;62.26;100675.38;5089541;28;20040;-69
2021/06/12 08:23:15;;;;;;;9.57;8.05;;;;;;;21.85;62.85;100674.53;5099321;28;20047;-68
2021/06/12 08:25:42;;;;;;;9.32;7.72;;;;;;;21.89;62.44;100678.56;5098521;27;20059;-69
2021/06/12 08:28:10;;;;;;;10.55;8.18;;;;;;;21.77;62.53;100669.13;5117925;27;20049;-69
2021/06/12 08:30:38;;;;;;;10.02;6.90;;;;;;;22.01;62.01;100666.50;5117650;27;20047;-69
2021/06/12 08:33:08;;;;;;;14.82;8.20;;;;;;;22.27;61.36;100665.59;5113729;27;20594;-68
2021/06/12 08:35:36;;;;;;;13.13;7.40;;;;;;;22.63;60.24;100660.75;5092606;27;20146;-68
2021/06/12 08:38:03;;;;;;;9.15;7.53;;;;;;;22.92;59.26;100655.75;5093729;27;20075;-70
2021/06/12 08:40:31;;;;;;;12.70;7.15;;;;;;;22.84;59.08;100660.25;5074112;28;20062;-69
2021/06/12 08:42:58;;;;;;;10.68;7.07;;;;;;;23.08;58.39;100649.50;5086748;27;20061;-68
2021/06/12 08:45:28;;;;;;;12.32;7.25;;;;;;;22.95;58.40;100649.19;5119117;27;20047;-68
2021/06/12 08:47:57;;;;;;;10.30;7.57;;;;;;;22.68;59.70;100656.56;5086590;28;20418;-67
2021/06/12 08:50:26;;;;;;;11.90;7.32;;;;;;;22.67;59.75;100657.59;5081656;28;20131;-68
2021/06/12 08:52:55;;;;;;;10.90;7.95;;;;;;;22.74;59.34;100657.75;5099250;28;20562;-68
2021/06/12 08:55:28;;;;;;;14.13;7.95;;;;;;;22.99;59.05;100647.84;5121145;28;20135;-69
2021/06/12 08:57:55;;;;;;;9.77;7.78;;;;;;;22.87;58.83;100646.47;5113993;28;20170;-67
2021/06/12 09:00:23;;;;;;;10.07;8.32;;;;;;;22.71;59.47;100647.34;5101144;28;20127;-67
2021/06/12 09:03:03;;;;;;;11.52;8.27;;;;;;;22.75;59.32;100651.38;5097557;28;20047;-68
2021/06/12 09:05:47;;;;;;;13.25;8.00;;;;;;;22.98;59.02;100640.81;5086737;28;20047;-68
2021/06/12 09:08:25;;;;;;;9.65;6.75;;;;;;;23.21;58.17;100649.81;5106950;28;20044;-68
2021/06/12 09:11:00;;;;;;;10.57;7.10;;;;;;;23.20;57.91;100656.19;5105842;28;20063;-68
2021/06/12 09:13:42;;;;;;;8.32;6.22;;;;;;;22.59;59.97;100654.06;5111243;27;20379;-68
2021/06/12 09:16:32;;;;;;;8.82;6.90;;;;;;;22.22;61.00;100642.78;5102313;28;20093;-68
2021/06/12 09:19:14;;;;;;;14.70;7.68;;;;;;;21.86;61.75;100650.22;5095180;28;20054;-69
2021/06/12 09:21:43;;;;;;;10.32;7.22;;;;;;;21.20;63.91;100641.03;5100258;28;20125;-68
2021/06/12 09:24:23;;;;;;;12.30;7.25;;;;;;;21.32;63.70;100638.97;5098264;28;20059;-67
2021/06/12 09:26:58;;;;;;;7.72;6.25;;;;;;;21.38;64.10;100648.19;5071366;28;20500;-68
2021/06/12 09:29:52;;;;;;;13.00;6.05;;;;;;;21.34;64.23;100654.84;5093050;28;20051;-68
2021/06/12 09:32:24;;;;;;;12.18;7.88;;;;;;;21.06;66.28;100649.66;5087292;28;20387;-69
2021/06/12 09:34:55;;;;;;;15.98;9.75;;;;;;;20.62;70.77;100648.81;5094279;28;20509;-67
2021/06/12 09:37:27;;;;;;;16.00;10.50;;;;;;;20.09;75.90;100657.69;5109031;28;20064;-66
2021/06/12 09:40:14;;;;;;;12.18;10.45;;;;;;;19.48;79.04;100653.75;5105854;28;20054;-66
2021/06/12 09:42:54;;;;;;;14.25;11.50;;;;;;;19.10;82.68;100657.41;5100363;28;20138;-68
2021/06/12 09:45:24;;;;;;;16.88;13.10;;;;;;;18.93;85.23;100672.31;5073596;28;20051;-68
2021/06/12 09:47:51;;;;;;;17.40;13.60;;;;;;;18.95;86.40;100660.50;5101814;28;20110;-68
2021/06/12 09:50:21;;;;;;;17.35;15.52;;;;;;;18.98;85.73;100664.72;5090605;28;20043;-67
2021/06/12 09:52:50;;;;;;;20.45;16.10;;;;;;;19.21;87.62;100662.56;5096082;28;20058;-67
2021/06/12 09:55:27;;;;;;;18.30;16.05;;;;;;;19.37;85.61;100651.28;5093100;28;20048;-69
2021/06/12 09:57:57;;;;;;;19.20;16.00;;;;;;;19.42;85.83;100659.69;5065094;28;20036;-68
2021/06/12 10:00:42;;;;;;;20.42;17.52;;;;;;;19.46;84.18;100659.25;5078406;28;20048;-68
2021/06/12 10:03:23;;;;;;;37.27;16.03;;;;;;;19.59;84.36;100656.25;5104252;28;20090;-68
2021/06/12 10:06:11;;;;;;;21.70;16.63;;;;;;;19.65;83.94;100644.16;5086393;28;20103;-68
2021/06/12 10:08:42;;;;;;;21.85;16.55;;;;;;;19.52;83.54;100646.28;5108626;28;20139;-68
2021/06/12 10:11:09;;;;;;;17.50;15.52;;;;;;;19.76;83.61;100640.44;5090520;28;20131;-67
2021/06/12 10:13:37;;;;;;;16.38;14.18;;;;;;;19.95;82.12;100645.69;5094096;28;20112;-66
2021/06/12 10:16:04;;;;;;;17.30;15.15;;;;;;;20.05;80.75;100641.09;5067103;28;21049;-67
2021/06/12 10:18:32;;;;;;;15.20;13.02;;;;;;;20.28;78.92;100644.16;5089620;28;20127;-69
2021/06/12 10:21:00;;;;;;;19.25;11.95;;;;;;;20.40;77.00;100644.78;5092112;28;20053;-68
2021/06/12 10:23:27;;;;;;;14.05;11.95;;;;;;;20.66;77.11;100643.00;5083843;28;20035;-67
2021/06/12 10:25:54;;;;;;;14.07;12.00;;;;;;;20.73;75.88;100633.38;5106351;28;20043;-68
2021/06/12 10:28:21;;;;;;;12.55;11.35;;;;;;;20.85;74.78;100636.66;5110069;28;20096;-69
2021/06/12 10:30:49;;;;;;;13.25;11.43;;;;;;;21.12;73.80;100637.47;5093313;28;20043;-69
2021/06/12 10:33:18;;;;;;;16.02;12.57;;;;;;;21.45;72.42;100631.31;5093625;28;20082;-68
2021/06/12 10:35:45;;;;;;;14.43;12.00;;;;;;;21.86;70.53;100631.47;5091631;28;20067;-69
2021/06/12 10:38:17;;;;;;;13.60;10.63;;;;;;;22.74;67.90;100620.19;5093460;28;20675;-70
2021/06/12 10:40:56;;;;;;;15.55;11.93;;;;;;;23.01;66.70;100610.94;5087889;28;20138;-69
2021/06/12 10:43:26;;;;;;;15.52;10.20;;;;;;;24.17;63.76;100604.84;5110494;28;20046;-71
2021/06/12 10:46:02;;;;;;;12.65;10.18;;;;;;;24.69;61.01;100618.41;5078474;28;20050;-66
2021/06/12 10:48:42;;;;;;;10.90;9.52;;;;;;;25.03;58.89;100611.66;5111639;27;20039;-69
2021/06/12 10:51:16;;;;;;;9.55;8.65;;;;;;;24.66;59.63;100607.16;5098651;27;20418;-68
2021/06/12 10:53:48;;;;;;;10.10;8.98;;;;;;;24.36;60.25;100601.69;5075990;28;20057;-69
2021/06/12 10:56:31;;;;;;;10.45;7.78;;;;;;;24.76;57.11;100595.13;5070854;27;20046;-68
2021/06/12 10:58:58;;;;;;;10.43;7.90;;;;;;;24.75;57.63;100589.91;5102869;28;20048;-69
2021/06/12 11:01:25;;;;;;;15.07;6.97;;;;;;;24.32;56.88;100583.41;5101322;28;20050;-67
2021/06/12 11:04:04;;;;;;;9.95;6.35;;;;;;;24.42;56.62;100589.41;5102618;28;20039;-68
2021/06/12 11:09:14;;;;;;;6.78;6.07;;;;;;;24.60;54.90;100581.81;5108010;27;20047;-67
2021/06/12 11:11:45;;;;;;;8.55;5.95;;;;;;;24.54;54.91;100574.47;5105827;27;20075;-68
2021/06/12 11:14:24;;;;;;;8.48;5.95;;;;;;;23.96;56.13;100570.56;5091923;28;20071;-67
2021/06/12 11:19:42;;;;;;;6.97;5.40;;;;;;;24.59;54.61;100566.72;5113517;27;20059;-70
2021/06/12 11:22:30;;;;;;;7.32;5.20;;;;;;;24.54;54.46;100561.00;5108661;27;20096;-67
2021/06/12 11:25:09;;;;;;;7.00;5.30;;;;;;;24.40;54.23;100549.19;5090439;28;20031;-67
2021/06/12 11:27:47;;;;;;;7.60;5.22;;;;;;;24.19;54.17;100547.19;5106881;28;20224;-69
2021/06/12 11:30:17;;;;;;;8.68;5.38;;;;;;;23.92;54.57;100551.25;5110488;27;20335;-67
2021/06/12 11:32:49;;;;;;;7.25;5.15;;;;;;;24.26;53.96;100558.88;5109223;28;20537;-67
2021/06/12 11:35:38;;;;;;;10.27;4.45;;;;;;;24.09;54.51;100546.59;5110704;27;20047;-70
2021/06/12 11:38:08;;;;;;;8.57;5.13;;;;;;;23.82;55.31;100536.34;5099499;28;20056;-70